createdAt,value
2022-11-13T18:18:43.363Z,70.70
2022-11-13T18:21:22.993Z,70.85
2022-11-13T18:23:56.111Z,72.80
2022-11-13T18:26:23.123Z,71.77
2022-11-13T18:28:49.919Z,72.62
2022-11-13T18:31:18.394Z,72.83
2022-11-13T18:33:45.583Z,73.40
2022-11-13T18:36:12.514Z,73.96
2022-11-13T18:38:39.334Z,74.89
2022-11-13T18:41:15.555Z,74.16
2022-11-13T18:43:50.301Z,74.60
2022-11-13T18:46:19.543Z,74.45
2022-11-13T18:48:47.364Z,75.09
2022-11-13T18:51:22.970Z,75.13
2022-11-13T18:53:51.263Z,75.46
2022-11-13T18:56:26.207Z,75.75
2022-11-13T18:58:54.894Z,75.96
2022-11-13T19:01:24.990Z,75.61
2022-11-13T19:04:22.180Z,76.29
2022-11-13T19:06:40.613Z,82.96
2022-11-13T19:09:11.996Z,78.20
2022-11-13T19:11:39.253Z,78.02
2022-11-13T19:14:06.795Z,78.78
2022-11-13T19:16:39.334Z,78.90
2022-11-13T19:19:18.575Z,79.22
2022-11-13T19:21:46.523Z,78.99
2022-11-13T19:24:15.043Z,79.19
2022-11-13T19:26:42.921Z,78.79
2022-11-13T19:29:10.656Z,79.48
2022-11-13T19:31:37.436Z,79.32
2022-11-13T19:34:07.493Z,79.39
2022-11-13T19:36:35.855Z,79.63
2022-11-13T19:41:59.708Z,79.85
2022-11-13T19:44:26.569Z,79.24
2022-11-13T19:46:53.675Z,79.84
2022-11-13T19:49:20.504Z,79.81
2022-11-13T19:51:47.307Z,79.91
2022-11-13T19:54:16.675Z,79.85
2022-11-13T19:56:43.554Z,79.85
2022-11-13T19:59:11.942Z,80.47
2022-11-13T20:01:38.841Z,80.73
2022-11-13T20:04:06.365Z,80.54
2022-11-13T20:06:33.364Z,80.65
2022-11-13T20:09:01.731Z,80.82
2022-11-13T20:11:29.385Z,81.14
2022-11-13T20:13:57.157Z,81.29
2022-11-13T20:16:24.614Z,81.09
2022-11-13T20:18:52.234Z,81.31
2022-11-13T20:21:30.914Z,82.41
2022-11-13T20:23:59.562Z,81.68
2022-11-13T20:26:27.625Z,81.65
2022-11-13T20:28:54.584Z,81.95
2022-11-13T20:31:25.124Z,81.99
2022-11-13T20:33:53.974Z,82.83
2022-11-13T20:36:21.767Z,82.39
2022-11-13T20:38:54.054Z,82.34
2022-11-13T20:41:21.241Z,82.32
2022-11-13T20:43:49.062Z,81.75
2022-11-13T20:46:20.744Z,82.35
2022-11-13T20:48:47.972Z,82.55
2022-11-13T20:51:20.506Z,82.16
2022-11-13T20:53:48.254Z,82.41
2022-11-13T20:56:16.491Z,82.85
2022-11-13T20:58:43.674Z,83.21
2022-11-13T21:01:19.996Z,82.58
2022-11-13T21:03:47.413Z,82.87
2022-11-13T21:06:17.665Z,82.46
2022-11-13T21:08:44.965Z,83.36
2022-11-13T21:11:19.171Z,82.92
2022-11-13T21:13:47.528Z,82.81
2022-11-13T21:16:15.016Z,82.89
2022-11-13T21:18:42.376Z,82.82
2022-11-13T21:21:14.687Z,82.92
2022-11-13T21:23:41.610Z,82.64
2022-11-13T21:26:09.918Z,83.67
2022-11-13T21:28:37.411Z,83.94
2022-11-13T21:31:07.083Z,84.24
2022-11-13T21:33:41.586Z,84.47
2022-11-13T21:36:14.378Z,83.93
2022-11-13T21:38:42.765Z,83.58
2022-11-13T21:41:27.040Z,83.90
2022-11-13T21:44:03.472Z,83.77
2022-11-13T21:46:33.217Z,83.92
2022-11-13T21:49:05.542Z,84.46
2022-11-13T21:51:34.448Z,84.53
2022-11-13T21:54:01.630Z,83.39
2022-11-13T21:56:30.125Z,84.69
2022-11-13T21:58:56.987Z,84.10
2022-11-13T22:01:25.622Z,84.05
2022-11-13T22:03:53.763Z,84.16
2022-11-13T22:06:24.615Z,83.76
2022-11-13T22:09:14.123Z,84.93
2022-11-13T22:11:41.448Z,84.30
2022-11-13T22:14:09.137Z,84.05
2022-11-13T22:16:39.856Z,84.01
2022-11-13T22:19:10.940Z,84.47
2022-11-13T22:21:41.378Z,84.10
2022-11-13T22:24:09.607Z,83.24
2022-11-13T22:26:38.526Z,83.54
2022-11-13T22:29:05.826Z,83.80
2022-11-13T22:33:36.102Z,83.73
2022-11-13T22:36:11.398Z,83.53
2022-11-13T22:38:39.537Z,84.58
2022-11-13T22:41:23.276Z,83.98
2022-11-13T22:43:55.950Z,84.01
2022-11-13T22:46:25.370Z,84.25
2022-11-13T22:48:53.961Z,83.26
2022-11-13T22:51:20.858Z,84.13
2022-11-13T22:53:52.828Z,84.33
2022-11-13T22:56:21.075Z,84.73
2022-11-13T22:58:48.398Z,84.92
2022-11-13T23:01:18.399Z,85.33
2022-11-13T23:03:47.487Z,85.01
2022-11-13T23:06:17.785Z,84.19
2022-11-13T23:08:44.814Z,84.65
2022-11-13T23:11:14.037Z,84.47
2022-11-13T23:13:46.698Z,84.88
2022-11-13T23:16:14.523Z,85.02
2022-11-13T23:18:41.570Z,84.53
2022-11-13T23:21:10.436Z,84.98
2022-11-13T23:23:37.803Z,85.17
2022-11-13T23:26:06.649Z,84.93
2022-11-13T23:28:33.882Z,85.61
2022-11-13T23:31:00.669Z,85.49
2022-11-13T23:33:27.833Z,85.13
2022-11-13T23:35:54.665Z,85.05
2022-11-13T23:38:21.537Z,85.32
2022-11-13T23:40:56.984Z,85.61
2022-11-13T23:43:36.466Z,85.52
2022-11-13T23:46:11.938Z,85.45
2022-11-13T23:48:40.134Z,85.77
2022-11-13T23:51:07.507Z,86.22
2022-11-13T23:53:34.349Z,85.82
2022-11-13T23:56:01.563Z,85.61
2022-11-13T23:58:28.638Z,85.46
